createdAt,value
2018-09-13T01:22:11.220Z,7.20
2018-09-13T01:23:56.879Z,7.70
2018-09-13T03:11:26.332Z,9.70
2018-09-13T03:12:07.976Z,9.80
2018-09-13T03:17:57.789Z,8.80
2018-09-13T04:37:17.338Z,12.40
2018-09-13T04:38:37.960Z,13.60
2018-09-13T04:39:16.084Z,14.40
2018-09-13T04:44:28.378Z,11.80
2018-09-13T04:47:53.472Z,12.70
2018-09-13T05:06:37.337Z,12.20
2018-09-13T05:07:34.992Z,13.80
2018-09-13T05:08:34.105Z,13.40
2018-09-13T05:09:34.978Z,12.30
2018-09-13T05:10:33.787Z,14.40
2018-09-13T05:13:30.378Z,13.00
2018-09-13T05:56:25.899Z,12.40
2018-09-13T05:57:25.852Z,20.70
2018-09-13T05:58:25.947Z,18.50
2018-09-13T05:59:25.705Z,22.90
2018-09-13T06:00:25.592Z,15.90
2018-09-13T06:01:25.728Z,15.00
2018-09-13T06:02:26.076Z,17.40
2018-09-13T06:03:25.815Z,17.30
2018-09-13T06:04:28.495Z,13.70
2018-09-13T06:07:17.721Z,14.90
2018-09-13T06:08:21.613Z,16.10
2018-09-13T06:09:17.042Z,14.50
2018-09-13T06:10:16.885Z,17.70
2018-09-13T06:11:16.113Z,16.90
2018-09-13T06:12:15.934Z,16.60
2018-09-13T07:54:34.236Z,11.90
2018-09-13T07:55:34.719Z,12.40
2018-09-13T07:56:34.847Z,13.00
2018-09-13T07:57:35.131Z,11.80
2018-09-13T07:58:36.317Z,11.40
2018-09-13T07:59:35.025Z,11.30
2018-09-13T08:00:35.323Z,13.00
2018-09-13T08:01:36.200Z,13.50
2018-09-13T08:02:34.211Z,12.60
2018-09-13T08:13:06.559Z,10.20
2018-09-13T08:14:08.946Z,11.00
2018-09-13T08:15:05.670Z,12.00
2018-09-13T08:16:05.567Z,12.20
2018-09-13T08:17:04.132Z,11.60
2018-09-13T08:18:05.668Z,11.70
2018-09-13T08:19:04.070Z,11.70
2018-09-13T08:20:40.662Z,12.10
2018-09-13T08:21:05.084Z,12.10
2018-09-13T08:22:04.907Z,12.90
2018-09-13T08:23:04.520Z,11.80
2018-09-13T08:24:04.148Z,11.30
2018-09-13T08:25:04.047Z,12.00
2018-09-13T08:26:05.814Z,10.90
2018-09-13T08:27:09.838Z,11.50
2018-09-13T08:28:05.718Z,11.40
2018-09-13T08:29:03.940Z,11.90
2018-09-13T08:30:07.922Z,11.60
2018-09-13T08:31:05.107Z,11.90
2018-09-13T08:32:06.689Z,12.40
2018-09-13T08:33:19.268Z,12.10
2018-09-13T08:34:05.030Z,12.10
2018-09-13T08:35:04.087Z,12.80
2018-09-13T08:36:05.100Z,11.70
2018-09-13T08:37:04.019Z,11.80
2018-09-13T08:38:04.658Z,11.70
2018-09-13T08:39:05.221Z,11.80
2018-09-13T08:40:04.814Z,12.00
2018-09-13T08:41:04.904Z,11.70
2018-09-13T08:42:04.844Z,13.10
2018-09-13T08:44:47.850Z,10.40
2018-09-13T08:45:39.091Z,11.90
2018-09-13T08:46:39.655Z,11.90
2018-09-13T08:47:39.189Z,13.10
2018-09-13T08:48:40.083Z,12.30
2018-09-13T08:49:40.108Z,12.10
2018-09-13T08:50:40.111Z,11.90
2018-09-13T08:51:40.702Z,12.50
2018-09-13T08:52:39.095Z,13.00
2018-09-13T08:53:39.101Z,12.60
2018-09-13T08:54:40.092Z,12.40
2018-09-13T08:55:39.567Z,13.30
2018-09-13T08:56:38.983Z,12.00
2018-09-13T08:59:44.979Z,13.20
2018-09-13T09:00:50.566Z,35.80
2018-09-13T09:01:46.564Z,50.70
2018-09-13T09:02:44.743Z,33.20
2018-09-13T09:03:45.738Z,17.60
2018-09-13T09:04:44.643Z,13.80
2018-09-13T09:05:45.014Z,12.50
2018-09-13T09:06:44.655Z,12.80
2018-09-13T09:07:46.456Z,16.50
2018-09-13T09:08:45.663Z,19.40
2018-09-13T09:09:44.643Z,14.20
2018-09-13T09:10:44.617Z,13.20
2018-09-13T09:11:56.523Z,12.00
2018-09-13T09:12:45.776Z,12.30
2018-09-13T09:13:44.817Z,12.70
2018-09-13T09:14:45.646Z,12.80
2018-09-13T09:15:45.902Z,12.50
2018-09-13T09:16:44.612Z,12.60
2018-09-13T09:17:44.568Z,25.30
2018-09-13T09:18:44.561Z,14.80
2018-09-13T09:19:44.455Z,12.50
2018-09-13T09:20:44.460Z,12.40
2018-09-13T09:21:44.517Z,12.00
2018-09-13T09:22:45.436Z,12.10
2018-09-13T09:23:44.473Z,11.00
2018-09-13T09:24:44.409Z,11.90
2018-09-13T09:25:44.400Z,12.30
2018-09-13T09:26:44.385Z,11.50
2018-09-13T09:27:45.382Z,11.30
2018-09-13T09:28:44.420Z,11.90
2018-09-13T09:29:44.429Z,13.20
2018-09-13T09:30:44.354Z,13.10
2018-09-13T09:31:44.325Z,11.70
2018-09-13T09:32:44.362Z,13.00
2018-09-13T09:33:45.881Z,11.40
2018-09-13T09:34:44.390Z,11.70
2018-09-13T09:35:44.878Z,12.30
2018-09-13T09:36:44.255Z,11.10
2018-09-13T09:37:44.320Z,11.90
2018-09-13T09:38:45.257Z,11.80
2018-09-13T09:39:59.341Z,12.90
2018-09-13T09:42:43.236Z,12.20
2018-09-13T09:43:44.151Z,13.20
2018-09-13T09:51:53.257Z,11.80
2018-09-13T09:52:39.160Z,13.20
2018-09-13T09:53:41.735Z,12.20
2018-09-13T09:58:37.764Z,13.00
2018-09-13T09:59:53.398Z,13.00
2018-09-13T10:13:16.154Z,13.00
2018-09-13T10:18:04.110Z,12.30
2018-09-13T10:20:58.550Z,13.70
2018-09-13T10:26:37.818Z,24.90
2018-09-13T10:27:11.768Z,23.30
2018-09-13T10:28:11.608Z,17.40
2018-09-13T10:32:26.167Z,13.50
2018-09-13T10:33:02.416Z,16.60
